Home PIREPS Pireps

Flight BEL11994TR

  • Submitted By: AndrĂ© Vincent
  • Departure Airport: Bruxelles National (EBBR)
  • Arrival Airport: Agadir Al Massira (GMAD)
  • Aircraft: YOUR CHOICE (YC)
  • Flight Time: 03.32
  • Date Submitted: 06/09/2017
  • Status: Accepted
Flight Details
Gross Revenue:
(25 load / € 0.00 per unit
€ 0.00
Fuel Cost:
(14487 fuel used @ 5.1 / unit)
€ 73,883.70

Additional Log Information:

View Log

Aircraft Used in flight is Boeing 737-800 sabena paint
16:58 Brakes are On
17:00 Brakes are Released
17:05 You Took off @ 204 Knots and Flaps at Position 2
Departure Weather
EBBR 061450Z 31010KT 9999 SCT043 17/08 Q1018 NOSIGrn
17:05 You are Airborne and your Beacons are off
17:05 Landing Gear Up @ 208 Knots and 210 Feet
20:03 You exceeded maximum bank angle
20:22 Landing Gear Down @ 132 Knots and 2310 Feet
20:26 You Landed @ 111 Knots and with -450 Vertical Speed
Arrival Weather
GMAD 061800Z 26007KT CAVOK 24/16 Q1012 NOSIGrn
20:29 Brakes are On
20:30 Brussels Bel-Track1.0.1.2

Route Map

Corporate About Us Our Team Vacancies Information Fleet Route Network Rules and Regulations Operations Flight Schedules Event Center Tours Partners IVAO Vatsim Acars dev FSCB

fb Users Online No pilots online!
0 Pilot(s) and 113 Guest(s) Online
CMS by phpVMS - Design by Crazycreatives.com - Copyright © 2018 - Brussels Airlines Virtual